Time;durP1;ratioP1;P1;durP2;ratioP2;P2;SDS_P1;SDS_P2;PMS_P1;PMS_P2;Temp;Humidity;BMP_temperature;BMP_pressure;BME280_temperature;BME280_humidity;BME280_pressure;Samples;Min_cycle;Max_cycle;Signal;HPM_P1;HPM_P2
2022/04/11 00:01:52;;;;;;;3.1;1.5;;;;;;;0.55;81.46777;941.0604;;;;
2022/04/11 00:04:38;;;;;;;2.8;1.4;;;;;;;0.47;81.44238;941.0171;;;;
2022/04/11 00:07:22;;;;;;;1.6;1.2;;;;;;;0.37;82.02441;941.0279;;;;
2022/04/11 00:09:55;;;;;;;1.7;1.3;;;;;;;0.38;82.30469;941.0441;;;;
2022/04/11 00:12:24;;;;;;;2.9;1.4;;;;;;;0.47;81.94434;941.0272;;;;
2022/04/11 00:15:12;;;;;;;2.1;1.6;;;;;;;0.45;81.92773;940.9948;;;;
2022/04/11 00:17:42;;;;;;;2;1.2;;;;;;;0.42;81.44336;940.9778;;;;
2022/04/11 00:20:20;;;;;;;2.2;1.7;;;;;;;0.38;81.79297;940.9394;;;;
2022/04/11 00:22:53;;;;;;;1.5;1.3;;;;;;;0.35;81.97559;940.9285;;;;
2022/04/11 00:25:37;;;;;;;3;1.6;;;;;;;0.36;81.87891;941.0128;;;;
2022/04/11 00:28:03;;;;;;;1.4;1.2;;;;;;;0.18;82.81348;941.0197;;;;
2022/04/11 00:30:29;;;;;;;2.5;1.4;;;;;;;0.22;83.21094;941.0807;;;;
2022/04/11 00:33:01;;;;;;;2;1.5;;;;;;;0.28;82.92188;941.0566;;;;
2022/04/11 00:41:08;;;;;;;2.2;1.5;;;;;;;0.3;82.2793;941.0263;;;;
2022/04/11 00:43:36;;;;;;;4.2;1.7;;;;;;;0.25;82.39258;941.0472;;;;
2022/04/11 00:46:08;;;;;;;2;1.7;;;;;;;0.24;82.31152;941.0181;;;;
2022/04/11 00:48:38;;;;;;;2.1;1.7;;;;;;;0.14;82.6377;941.0424;;;;
2022/04/11 00:51:05;;;;;;;2.8;1.8;;;;;;;0.16;82.83203;941.0342;;;;
2022/04/11 00:53:31;;;;;;;4.8;2.7;;;;;;;0.15;82.69727;941.0268;;;;
2022/04/11 00:55:58;;;;;;;4.7;2.8;;;;;;;0.2;82.19141;941.0039;;;;
2022/04/11 00:58:23;;;;;;;4;2.1;;;;;;;0.25;81.3418;941.01;;;;
2022/04/11 01:00:50;;;;;;;2.3;2;;;;;;;0.17;81.25;940.9637;;;;
2022/04/11 01:03:17;;;;;;;2.3;1.8;;;;;;;0.21;81.13574;941.063;;;;
2022/04/11 01:05:49;;;;;;;3.3;2;;;;;;;0.17;81.09375;941.0464;;;;
2022/04/11 01:08:14;;;;;;;2;1.7;;;;;;;0.19;81.09863;941.0765;;;;
2022/04/11 01:10:39;;;;;;;2.9;1.9;;;;;;;0.17;81.23828;941.0809;;;;
2022/04/11 01:13:04;;;;;;;2.6;1.9;;;;;;;0.1;81.77051;941.0105;;;;
2022/04/11 01:15:32;;;;;;;3;1.7;;;;;;;0.11;81.93066;940.9626;;;;
2022/04/11 01:18:03;;;;;;;2.7;1.7;;;;;;;0.03;82.5498;941.0061;;;;
2022/04/11 01:20:28;;;;;;;1.9;1.7;;;;;;;-0.11;83.13379;941.0233;;;;
2022/04/11 01:22:57;;;;;;;2.3;1.7;;;;;;;-0.25;83.89551;941.0366;;;;
2022/04/11 01:25:22;;;;;;;2.5;1.9;;;;;;;-0.25;84.31836;941.0413;;;;
2022/04/11 01:27:54;;;;;;;3;1.9;;;;;;;-0.2;83.97363;940.9642;;;;
2022/04/11 01:30:27;;;;;;;2.9;1.9;;;;;;;-0.08;83.5625;940.993;;;;
2022/04/11 01:32:52;;;;;;;5.2;2.1;;;;;;;-0.05;83.31543;940.9745;;;;
2022/04/11 01:35:29;;;;;;;2.2;1.4;;;;;;;-0.06;83.02051;940.9345;;;;
2022/04/11 01:37:55;;;;;;;1.7;1.3;;;;;;;-0.17;83.5791;940.8144;;;;
2022/04/11 01:40:28;;;;;;;1.7;1.6;;;;;;;-0.21;84.04004;940.8741;;;;
2022/04/11 01:42:53;;;;;;;3.2;1.5;;;;;;;-0.26;84.14063;940.9378;;;;
2022/04/11 01:45:18;;;;;;;2.3;1.5;;;;;;;-0.48;85.03027;940.9019;;;;
2022/04/11 01:47:50;;;;;;;2.8;1.7;;;;;;;-0.46;85.38965;940.9109;;;;
2022/04/11 01:50:22;;;;;;;2.5;1.6;;;;;;;-0.3;84.88867;940.8924;;;;
2022/04/11 01:52:53;;;;;;;1.8;1.7;;;;;;;-0.19;84.1084;940.8142;;;;
2022/04/11 01:55:24;;;;;;;1.5;1.4;;;;;;;-0.24;84.11035;940.7862;;;;
2022/04/11 01:57:55;;;;;;;3;1.7;;;;;;;-0.18;83.75391;940.7881;;;;
2022/04/11 02:00:26;;;;;;;1.5;1.3;;;;;;;-0.26;83.99609;940.775;;;;
2022/04/11 02:02:50;;;;;;;1.9;1.5;;;;;;;-0.27;84.27051;940.7445;;;;
2022/04/11 02:05:23;;;;;;;1.7;1.2;;;;;;;-0.26;84.05176;940.7093;;;;
2022/04/11 02:07:49;;;;;;;1.5;1.4;;;;;;;-0.21;83.89355;940.7245;;;;
2022/04/11 02:10:20;;;;;;;2.5;1.5;;;;;;;-0.17;83.66895;940.7236;;;;
2022/04/11 02:12:47;;;;;;;2;1.3;;;;;;;-0.23;83.87695;940.67;;;;
2022/04/11 02:15:15;;;;;;;2;1.3;;;;;;;-0.16;83.45703;940.6468;;;;
2022/04/11 02:17:42;;;;;;;1.7;1.4;;;;;;;-0.23;83.92188;940.6418;;;;
2022/04/11 02:20:13;;;;;;;3.3;1.7;;;;;;;-0.26;84.03906;940.5581;;;;
2022/04/11 02:22:43;;;;;;;3.1;1.4;;;;;;;-0.28;84.14648;940.5367;;;;
2022/04/11 02:25:12;;;;;;;1.5;1.2;;;;;;;-0.36;84.51074;940.5916;;;;
2022/04/11 02:27:38;;;;;;;2.9;1.5;;;;;;;-0.27;84.11621;940.4406;;;;
2022/04/11 02:30:12;;;;;;;1.8;1.5;;;;;;;-0.35;84.12305;940.4763;;;;
2022/04/11 02:32:37;;;;;;;1.6;1.5;;;;;;;-0.42;85.02051;940.4422;;;;
2022/04/11 02:35:09;;;;;;;2.7;1.7;;;;;;;-0.33;84.87207;940.3904;;;;
2022/04/11 02:37:34;;;;;;;1.9;1.7;;;;;;;-0.24;84.47852;940.3621;;;;
2022/04/11 02:40:04;;;;;;;2.8;1.7;;;;;;;-0.2;83.78418;940.2553;;;;
2022/04/11 02:42:29;;;;;;;2.1;1.7;;;;;;;-0.13;83.3418;940.2587;;;;
2022/04/11 02:44:54;;;;;;;1.6;1.5;;;;;;;-0.11;82.69922;940.2559;;;;
2022/04/11 02:47:19;;;;;;;1.9;1.7;;;;;;;-0.18;82.9082;940.2153;;;;
2022/04/11 02:49:50;;;;;;;1.9;1.7;;;;;;;-0.34;83.65723;940.2687;;;;
2022/04/11 02:52:15;;;;;;;1.7;1.6;;;;;;;-0.43;84.27344;940.2198;;;;
2022/04/11 02:54:45;;;;;;;1.8;1.6;;;;;;;-0.52;84.64453;940.24;;;;
2022/04/11 02:57:10;;;;;;;2.7;1.5;;;;;;;-0.58;85.12305;940.1484;;;;
2022/04/11 02:59:40;;;;;;;1.8;1.3;;;;;;;-0.61;85.40527;940.0555;;;;
2022/04/11 03:02:05;;;;;;;1.7;1.5;;;;;;;-0.61;85.39551;940.0833;;;;
2022/04/11 03:04:35;;;;;;;1.8;1.4;;;;;;;-0.54;85.0752;940.0614;;;;
2022/04/11 03:07:07;;;;;;;2.4;1.6;;;;;;;-0.53;84.87598;940.0517;;;;
2022/04/11 03:09:31;;;;;;;3.6;1.5;;;;;;;-0.58;85.17871;940.0734;;;;
2022/04/11 03:11:57;;;;;;;1.9;1.4;;;;;;;-0.58;85.02148;939.9908;;;;
2022/04/11 03:14:22;;;;;;;1.6;1.3;;;;;;;-0.6;84.99512;939.9666;;;;
2022/04/11 03:16:50;;;;;;;2.4;1.3;;;;;;;-0.64;85.30859;939.9885;;;;
2022/04/11 03:19:15;;;;;;;2.4;1.5;;;;;;;-0.69;85.7334;939.9811;;;;
2022/04/11 03:32:10;;;;;;;2.5;1.7;;;;;;;-0.7;85.73145;939.9361;;;;
2022/04/11 03:34:36;;;;;;;3.7;1.7;;;;;;;-0.67;85.77051;939.8568;;;;
2022/04/11 03:37:06;;;;;;;2.9;1.5;;;;;;;-0.64;85.71094;939.9456;;;;
2022/04/11 03:39:31;;;;;;;2.3;1.5;;;;;;;-0.64;85.52051;939.9406;;;;
2022/04/11 03:42:00;;;;;;;3.5;1.7;;;;;;;-0.69;85.7002;939.952;;;;
2022/04/11 03:44:35;;;;;;;1.5;1.4;;;;;;;-0.6;85.55176;939.9294;;;;
2022/04/11 03:46:57;;;;;;;2.4;1.5;;;;;;;-0.53;85.16406;939.8825;;;;
2022/04/11 03:49:27;;;;;;;1.8;1.6;;;;;;;-0.54;85.08398;939.8162;;;;
2022/04/11 03:51:57;;;;;;;2.2;1.5;;;;;;;-0.49;84.81738;939.7645;;;;
2022/04/11 03:54:28;;;;;;;2;1.6;;;;;;;-0.39;84.13574;939.7533;;;;
2022/04/11 03:56:53;;;;;;;2.4;1.7;;;;;;;-0.37;83.88477;939.7108;;;;
2022/04/11 03:59:21;;;;;;;1.8;1.6;;;;;;;-0.46;83.92285;939.6231;;;;
2022/04/11 04:03:54;;;;;;;2.7;1.6;;;;;;;-0.64;84.70996;939.6555;;;;
2022/04/11 04:06:24;;;;;;;3.4;1.7;;;;;;;-0.62;85.02539;939.6277;;;;
2022/04/11 04:08:50;;;;;;;1.8;1.6;;;;;;;-0.55;84.82813;939.5399;;;;
2022/04/11 04:11:17;;;;;;;1.9;1.3;;;;;;;-0.43;83.72754;939.551;;;;
2022/04/11 04:16:44;;;;;;;3.4;1.7;;;;;;;-0.44;83.9043;939.5175;;;;
2022/04/11 04:19:14;;;;;;;1.5;1.4;;;;;;;-0.47;84.06348;939.4966;;;;
2022/04/11 04:24:06;;;;;;;4.4;1.7;;;;;;;-0.29;82.71973;939.3738;;;;
2022/04/11 04:26:31;;;;;;;1.7;1.5;;;;;;;-0.2;81.98047;939.3791;;;;
2022/04/11 04:29:01;;;;;;;2.2;1.6;;;;;;;-0.2;82.12695;939.274;;;;
2022/04/11 04:31:27;;;;;;;4.7;1.9;;;;;;;-0.28;82.81055;939.2803;;;;
2022/04/11 04:33:54;;;;;;;4.5;1.9;;;;;;;-0.4;83.66699;939.2612;;;;
2022/04/11 04:36:23;;;;;;;4;1.9;;;;;;;-0.42;83.7627;939.233;;;;
2022/04/11 04:38:48;;;;;;;4.8;2.2;;;;;;;-0.52;84.22168;939.1898;;;;
2022/04/11 04:41:16;;;;;;;4.7;2.5;;;;;;;-0.5;84.54785;939.1819;;;;
2022/04/11 04:55:35;;;;;;;4.4;2.9;;;;;;;-0.33;83.41602;939.1944;;;;
2022/04/11 05:01:11;;;;;;;3.4;2.3;;;;;;;-0.45;83.00098;939.1532;;;;
2022/04/11 05:03:36;;;;;;;3.6;2.1;;;;;;;-0.29;82.50781;939.1086;;;;
2022/04/11 05:06:09;;;;;;;4.4;2.3;;;;;;;-0.17;81.87598;939.1072;;;;
2022/04/11 05:09:53;;;;;;;4.1;2.7;;;;;;;-0.01;81.29297;939.0782;;;;
2022/04/11 05:22:48;;;;;;;7.1;2.5;;;;;;;0.32;80.37598;939.0358;;;;
2022/04/11 05:25:15;;;;;;;3.7;2.1;;;;;;;0.45;79.89844;938.9786;;;;
2022/04/11 05:27:41;;;;;;;3.6;1.9;;;;;;;0.42;79.29102;938.8797;;;;
2022/04/11 05:30:18;;;;;;;2.6;1.6;;;;;;;0.53;79.14258;938.8045;;;;
2022/04/11 05:32:54;;;;;;;3.4;1.7;;;;;;;0.67;76.43652;938.9;;;;
2022/04/11 05:35:20;;;;;;;3.5;2.6;;;;;;;0.59;78.48828;938.8917;;;;
2022/04/11 05:37:46;;;;;;;4;2.4;;;;;;;0.55;79.44922;938.8886;;;;
2022/04/11 05:40:18;;;;;;;4.2;2.4;;;;;;;0.71;79.42188;938.9317;;;;
2022/04/11 05:42:50;;;;;;;5.2;2.9;;;;;;;1.38;77.49512;938.9728;;;;
2022/04/11 05:45:16;;;;;;;4.1;2.5;;;;;;;1.81;74.66504;938.9392;;;;
2022/04/11 05:47:49;;;;;;;4.1;2.9;;;;;;;2.3;71.74902;938.9619;;;;
2022/04/11 05:50:15;;;;;;;4.9;2.6;;;;;;;2.5;71.78125;939.0219;;;;
2022/04/11 05:52:47;;;;;;;6.1;3.6;;;;;;;2.44;70.93164;939.0126;;;;
2022/04/11 05:55:17;;;;;;;3.7;1.5;;;;;;;2.56;70.89551;938.9805;;;;
2022/04/11 05:57:43;;;;;;;4;1.5;;;;;;;2.8;69.05078;939.0734;;;;
2022/04/11 06:00:21;;;;;;;4.4;1.8;;;;;;;3.25;67.42969;939.0298;;;;
2022/04/11 06:02:57;;;;;;;6.3;2.5;;;;;;;3.31;67.66406;939.0383;;;;
2022/04/11 06:05:29;;;;;;;4.9;2.9;;;;;;;3.64;66.78418;939.0605;;;;
2022/04/11 06:07:59;;;;;;;6.9;2.5;;;;;;;3.48;67.36523;939.0599;;;;
2022/04/11 06:10:25;;;;;;;3.2;2.7;;;;;;;3.37;68.5166;939.0697;;;;
2022/04/11 06:12:55;;;;;;;4.8;1.9;;;;;;;3.1;69.03223;939.17;;;;
2022/04/11 06:15:31;;;;;;;7.9;2.7;;;;;;;2.89;70.52539;939.1553;;;;
2022/04/11 06:18:01;;;;;;;3.6;2.3;;;;;;;2.97;69.98926;939.1562;;;;
2022/04/11 06:20:26;;;;;;;5.6;2.4;;;;;;;3.33;69.04883;939.0368;;;;
2022/04/11 06:22:57;;;;;;;7.2;2.3;;;;;;;3.34;68.01758;939.0316;;;;
2022/04/11 06:25:22;;;;;;;3.4;2.1;;;;;;;3.8;66.95508;938.9881;;;;
2022/04/11 06:27:49;;;;;;;4;1.9;;;;;;;4;65.45703;939.0499;;;;
2022/04/11 06:30:14;;;;;;;4.7;1.8;;;;;;;4.96;61.88574;938.9745;;;;
2022/04/11 06:32:44;;;;;;;3.4;1.8;;;;;;;5.31;59.64746;939.03;;;;
2022/04/11 06:35:25;;;;;;;4.2;1.6;;;;;;;5.42;59.28906;939.0453;;;;
2022/04/11 06:37:51;;;;;;;3.6;2;;;;;;;5.63;58.17871;939.0754;;;;
2022/04/11 06:40:15;;;;;;;3.4;2;;;;;;;5.22;59.17188;939.0281;;;;
2022/04/11 06:42:47;;;;;;;6.9;3.3;;;;;;;5.02;58.63574;938.9988;;;;
2022/04/11 06:45:14;;;;;;;5.7;2.2;;;;;;;5.89;57.0625;938.9411;;;;
2022/04/11 06:47:48;;;;;;;4.2;2.5;;;;;;;7.62;52.05273;938.9359;;;;
2022/04/11 06:50:12;;;;;;;6.1;2.6;;;;;;;8.69;50.1709;938.8886;;;;
2022/04/11 06:52:45;;;;;;;5.1;2.8;;;;;;;8.22;47.77539;938.9512;;;;
2022/04/11 06:55:17;;;;;;;5.7;2.5;;;;;;;7.61;51.12207;938.9626;;;;
2022/04/11 06:57:44;;;;;;;6.3;3;;;;;;;8.14;49.95898;938.8328;;;;
2022/04/11 07:00:17;;;;;;;1.7;1.5;;;;;;;8.15;47.90527;938.841;;;;
2022/04/11 07:02:43;;;;;;;3.1;1.6;;;;;;;7.93;50.07129;938.7626;;;;
2022/04/11 07:05:15;;;;;;;4.2;2;;;;;;;8.74;47.20996;938.7886;;;;
2022/04/11 07:07:49;;;;;;;2.3;1.4;;;;;;;8.48;46.73633;938.8337;;;;
2022/04/11 07:10:15;;;;;;;4.1;1.3;;;;;;;8.12;48.15137;938.7944;;;;
2022/04/11 07:15:50;;;;;;;3.3;1.1;;;;;;;9.17;45.95898;938.7533;;;;
2022/04/11 07:18:20;;;;;;;2.8;1.2;;;;;;;10.47;43.28809;938.7729;;;;
2022/04/11 07:20:45;;;;;;;1.8;0.9;;;;;;;11.68;39.88379;938.7424;;;;
2022/04/11 07:23:15;;;;;;;3.3;2.2;;;;;;;13.28;35.6875;938.6578;;;;
2022/04/11 07:25:44;;;;;;;2.2;1;;;;;;;11.93;38.09766;938.6453;;;;
2022/04/11 07:28:10;;;;;;;2.8;1.4;;;;;;;12.47;36.6416;938.5906;;;;
2022/04/11 07:30:39;;;;;;;1.8;1;;;;;;;13.1;35.21387;938.57;;;;
2022/04/11 07:33:10;;;;;;;3.7;2.2;;;;;;;11.29;35.86816;938.5176;;;;
2022/04/11 07:35:40;;;;;;;1.8;1;;;;;;;11.6;38.57129;938.4664;;;;
2022/04/11 07:38:11;;;;;;;3;1.5;;;;;;;11.59;36.73926;938.4568;;;;
2022/04/11 07:40:37;;;;;;;1.1;0.9;;;;;;;12.76;34.1875;938.4653;;;;
2022/04/11 07:43:09;;;;;;;1.1;1;;;;;;;12.17;34.11914;938.4447;;;;
2022/04/11 07:45:33;;;;;;;0.9;0.7;;;;;;;15.18;31.04297;938.3482;;;;
2022/04/11 07:48:06;;;;;;;2.6;0.9;;;;;;;16.31;29.34082;938.3315;;;;
2022/04/11 07:50:35;;;;;;;2.8;0.9;;;;;;;14.82;29.24121;938.3226;;;;
2022/04/11 07:53:00;;;;;;;2;1.1;;;;;;;13.31;33.20801;938.3403;;;;
2022/04/11 07:55:26;;;;;;;2.8;1.1;;;;;;;14.53;30.53516;938.3142;;;;
2022/04/11 07:57:58;;;;;;;2.8;0.9;;;;;;;13.59;31.89551;938.2874;;;;
2022/04/11 08:00:29;;;;;;;1.9;0.9;;;;;;;14.09;31.19531;938.2314;;;;
2022/04/11 08:02:54;;;;;;;0.5;0.4;;;;;;;12.83;31.26563;938.2372;;;;
2022/04/11 08:05:23;;;;;;;0.8;0.6;;;;;;;13.59;30.32031;938.2657;;;;
2022/04/11 08:07:55;;;;;;;1.3;0.7;;;;;;;14.35;28.8877;938.1864;;;;
2022/04/11 08:10:26;;;;;;;1.2;0.6;;;;;;;14.97;28.25977;938.0825;;;;
2022/04/11 08:12:57;;;;;;;0.8;0.6;;;;;;;14.04;29.0625;938.0715;;;;
2022/04/11 08:15:22;;;;;;;0.9;0.6;;;;;;;14.68;29.79785;938.1509;;;;
2022/04/11 08:17:48;;;;;;;2.2;0.7;;;;;;;14.6;29.00879;938.0581;;;;
2022/04/11 08:20:14;;;;;;;0.6;0.6;;;;;;;14.25;28.57031;938.0708;;;;
2022/04/11 08:22:38;;;;;;;1.2;0.9;;;;;;;15.06;29.33887;937.9931;;;;
2022/04/11 08:25:10;;;;;;;3.1;0.9;;;;;;;17.56;25.36426;937.9364;;;;
2022/04/11 08:27:35;;;;;;;0.8;0.5;;;;;;;19.66;23.35156;937.9202;;;;
2022/04/11 08:30:03;;;;;;;2.4;0.8;;;;;;;18.68;22.64844;937.9494;;;;
2022/04/11 08:32:28;;;;;;;1.1;0.7;;;;;;;16.66;24.55957;937.972;;;;
2022/04/11 08:34:58;;;;;;;0.9;0.7;;;;;;;16.02;24.43066;937.8813;;;;
2022/04/11 08:37:24;;;;;;;1.6;0.7;;;;;;;17.94;22.71484;937.9712;;;;
2022/04/11 08:39:53;;;;;;;1.6;0.7;;;;;;;17.24;24.83496;937.8564;;;;
2022/04/11 08:42:18;;;;;;;1.7;0.6;;;;;;;17.99;24.05273;937.9656;;;;
2022/04/11 08:44:47;;;;;;;1.8;0.7;;;;;;;17.86;23.53516;937.9437;;;;
2022/04/11 08:47:12;;;;;;;2;0.6;;;;;;;17.62;23.69629;937.8703;;;;
2022/04/11 08:49:37;;;;;;;0.7;0.7;;;;;;;17.06;23.51563;937.8413;;;;
2022/04/11 08:52:07;;;;;;;1;0.6;;;;;;;20.13;22.99121;937.7811;;;;
2022/04/11 08:54:33;;;;;;;0.7;0.5;;;;;;;21.65;20.72852;937.74;;;;
2022/04/11 08:57:03;;;;;;;1.2;0.8;;;;;;;22.96;20.17871;937.6958;;;;
2022/04/11 08:59:35;;;;;;;0.9;0.6;;;;;;;20.99;19.63281;937.6437;;;;
2022/04/11 09:02:01;;;;;;;1.9;0.7;;;;;;;20.96;20.52051;937.6309;;;;
2022/04/11 09:04:26;;;;;;;0.9;0.6;;;;;;;21.29;20.69922;937.575;;;;
2022/04/11 09:06:51;;;;;;;2.7;0.8;;;;;;;23.13;19.74023;937.5812;;;;
2022/04/11 09:09:16;;;;;;;1.4;0.8;;;;;;;23.84;18.81836;937.6071;;;;
2022/04/11 09:11:42;;;;;;;1;0.7;;;;;;;22.94;18.7334;937.6569;;;;
2022/04/11 09:14:14;;;;;;;2.4;0.8;;;;;;;21.45;20.47266;937.6572;;;;
2022/04/11 09:16:50;;;;;;;0.7;0.5;;;;;;;20.83;19.43945;937.6008;;;;
2022/04/11 09:19:19;;;;;;;0.7;0.7;;;;;;;22.25;21.41309;937.6033;;;;
2022/04/11 09:21:45;;;;;;;0.8;0.5;;;;;;;23.51;19.85059;937.551;;;;
2022/04/11 09:24:10;;;;;;;1.2;0.6;;;;;;;24.61;18.30859;937.4797;;;;
2022/04/11 09:26:35;;;;;;;0.9;0.6;;;;;;;24.88;18.4375;937.4481;;;;
2022/04/11 09:29:06;;;;;;;0.6;0.6;;;;;;;25.31;17.61621;937.4208;;;;
2022/04/11 09:31:32;;;;;;;0.7;0.7;;;;;;;22;17.79102;937.4314;;;;
2022/04/11 09:33:57;;;;;;;1.2;0.7;;;;;;;22.54;19.76074;937.3127;;;;
2022/04/11 09:36:22;;;;;;;1;0.7;;;;;;;23.24;19.70898;937.3792;;;;
2022/04/11 09:38:53;;;;;;;0.6;0.4;;;;;;;23.77;19.00391;937.3453;;;;
2022/04/11 09:41:23;;;;;;;0.5;0.4;;;;;;;24.11;18.25195;937.3808;;;;
2022/04/11 09:43:50;;;;;;;0.8;0.7;;;;;;;23;19.93359;937.3019;;;;
2022/04/11 09:46:19;;;;;;;1;0.6;;;;;;;22.9;19.0127;937.3303;;;;
2022/04/11 09:48:48;;;;;;;1;0.5;;;;;;;22.9;19.71777;937.2687;;;;
2022/04/11 09:51:15;;;;;;;1.2;0.4;;;;;;;23.06;19.41992;937.2601;;;;
2022/04/11 09:53:46;;;;;;;1;0.5;;;;;;;22.35;19.16602;937.3066;;;;
2022/04/11 09:56:10;;;;;;;0.7;0.5;;;;;;;22.98;20.7793;937.2321;;;;
2022/04/11 09:58:38;;;;;;;3.1;0.7;;;;;;;22.71;21.07129;937.2472;;;;
2022/04/11 10:01:03;;;;;;;0.7;0.4;;;;;;;22.87;19.93945;937.1959;;;;
2022/04/11 10:03:29;;;;;;;0.5;0.5;;;;;;;23.38;19.50391;937.1822;;;;
2022/04/11 10:05:55;;;;;;;0.9;0.6;;;;;;;23.88;19.76172;937.1312;;;;
2022/04/11 10:08:20;;;;;;;1.3;0.5;;;;;;;23.89;19.5498;937.1284;;;;
2022/04/11 10:10:45;;;;;;;1;0.6;;;;;;;24.01;18.22461;937.057;;;;
2022/04/11 10:13:16;;;;;;;1.5;0.8;;;;;;;24.51;19.42383;937.0803;;;;
2022/04/11 10:15:45;;;;;;;1;0.5;;;;;;;23.04;18.59668;937.0725;;;;
2022/04/11 10:18:10;;;;;;;0.7;0.6;;;;;;;22.87;19.05957;937.0748;;;;
2022/04/11 10:20:36;;;;;;;1.1;0.5;;;;;;;24.15;19.19629;937.0538;;;;
2022/04/11 10:23:06;;;;;;;1.1;0.6;;;;;;;24.53;19.3418;936.967;;;;
2022/04/11 10:25:38;;;;;;;1.5;0.5;;;;;;;24.66;19.21777;936.9678;;;;
2022/04/11 10:28:04;;;;;;;1;0.8;;;;;;;24.42;18.67773;936.8686;;;;
2022/04/11 10:30:29;;;;;;;0.9;0.6;;;;;;;25.01;18.23047;936.8669;;;;
2022/04/11 10:32:55;;;;;;;0.6;0.5;;;;;;;26.02;18.66211;936.8098;;;;
2022/04/11 10:35:21;;;;;;;0.7;0.5;;;;;;;25.9;17.0957;936.7969;;;;
2022/04/11 10:37:45;;;;;;;0.3;0.3;;;;;;;25.1;17.31348;936.8555;;;;
2022/04/11 10:40:19;;;;;;;0.6;0.4;;;;;;;25.59;16.22168;936.8235;;;;
2022/04/11 10:42:44;;;;;;;0.3;0.3;;;;;;;25.94;16.67188;936.8092;;;;
2022/04/11 10:45:15;;;;;;;0.4;0.4;;;;;;;25.95;16.15234;936.7166;;;;
2022/04/11 10:47:43;;;;;;;1.2;0.6;;;;;;;25.46;17.66992;936.7802;;;;
2022/04/11 10:50:10;;;;;;;2.3;1;;;;;;;25.4;18.23438;936.6755;;;;
2022/04/11 10:52:38;;;;;;;0.8;0.8;;;;;;;24.08;20.13477;936.5939;;;;
2022/04/11 10:55:08;;;;;;;2.2;1;;;;;;;23.66;20.78711;936.6816;;;;
2022/04/11 10:57:38;;;;;;;1.6;1.2;;;;;;;23.77;20.47363;936.7178;;;;
2022/04/11 11:00:03;;;;;;;1.4;1.2;;;;;;;24.02;21.63965;936.6547;;;;
2022/04/11 11:02:28;;;;;;;2.8;1.4;;;;;;;23.86;22.33789;936.6797;;;;
2022/04/11 11:04:53;;;;;;;3.3;1.4;;;;;;;23.43;22.32813;936.6083;;;;
2022/04/11 11:07:18;;;;;;;2.7;1.9;;;;;;;23.11;22.95898;936.5148;;;;
2022/04/11 11:09:43;;;;;;;1.9;1.4;;;;;;;22.55;23.19922;936.5438;;;;
2022/04/11 11:12:12;;;;;;;2.3;1.1;;;;;;;22.85;22.4873;936.4731;;;;
2022/04/11 11:14:37;;;;;;;2.2;1.6;;;;;;;23.16;22.53809;936.4728;;;;
2022/04/11 11:17:07;;;;;;;1.9;1.1;;;;;;;22.53;24.19531;936.4197;;;;
2022/04/11 11:19:37;;;;;;;1.2;0.9;;;;;;;22.59;24.1875;936.4341;;;;
2022/04/11 11:22:08;;;;;;;1.4;1.1;;;;;;;23.78;21.63965;936.3856;;;;
2022/04/11 11:24:31;;;;;;;1.7;1.1;;;;;;;24.62;21.2793;936.334;;;;
2022/04/11 11:27:00;;;;;;;2.6;1.3;;;;;;;23.81;22.8418;936.2988;;;;
2022/04/11 11:29:24;;;;;;;1.3;1.1;;;;;;;23.09;22.44043;936.2697;;;;
2022/04/11 11:31:52;;;;;;;1;0.8;;;;;;;22.96;23.26855;936.2332;;;;
2022/04/11 11:34:18;;;;;;;3;1.4;;;;;;;23.08;22.89746;936.1815;;;;
2022/04/11 11:36:46;;;;;;;1.9;1.1;;;;;;;22.83;24.21191;936.1679;;;;
2022/04/11 11:39:12;;;;;;;1.9;1.2;;;;;;;22.13;24.30371;936.2477;;;;
2022/04/11 11:41:42;;;;;;;2.8;1.3;;;;;;;22.2;25.3623;936.1365;;;;
2022/04/11 11:44:12;;;;;;;3.9;1.3;;;;;;;21.56;26.69531;936.1033;;;;
2022/04/11 11:46:37;;;;;;;3.9;1.5;;;;;;;22.16;23.87109;936.1492;;;;
2022/04/11 11:49:06;;;;;;;1.4;1.3;;;;;;;22.9;23.24121;936.0861;;;;
2022/04/11 11:51:32;;;;;;;2.4;1.6;;;;;;;22.22;25.78516;936.0305;;;;
2022/04/11 11:54:01;;;;;;;2.3;1.4;;;;;;;21.58;26.20508;935.9431;;;;
2022/04/11 11:56:26;;;;;;;2.3;1.3;;;;;;;21.88;25.00391;936.0248;;;;
2022/04/11 11:58:55;;;;;;;2.2;1.4;;;;;;;21.79;26.51074;936.0231;;;;
2022/04/11 12:01:21;;;;;;;1.4;1.2;;;;;;;22.64;25.37598;935.9925;;;;
2022/04/11 12:06:16;;;;;;;1.4;1.1;;;;;;;22.61;25.32617;935.9473;;;;
2022/04/11 12:08:46;;;;;;;2;1.2;;;;;;;22.07;26.26855;935.8376;;;;
2022/04/11 12:11:11;;;;;;;1.4;0.9;;;;;;;22.23;24.74219;935.8055;;;;
2022/04/11 12:13:37;;;;;;;1.2;1;;;;;;;22.17;25.36035;935.7866;;;;
2022/04/11 12:16:09;;;;;;;1;0.9;;;;;;;22.58;24.57422;935.7219;;;;
2022/04/11 12:18:39;;;;;;;6;1.4;;;;;;;21.8;25.18652;935.8314;;;;
2022/04/11 12:21:04;;;;;;;2.5;0.8;;;;;;;21.89;25.2041;935.7399;;;;
2022/04/11 12:23:52;;;;;;;1.7;1.1;;;;;;;21.74;25.53516;935.7991;;;;
2022/04/11 12:26:17;;;;;;;6.1;1;;;;;;;22.04;24.04004;935.7305;;;;
2022/04/11 12:28:46;;;;;;;1.2;0.9;;;;;;;22.42;23.88477;935.6599;;;;
2022/04/11 12:31:15;;;;;;;1.5;0.9;;;;;;;22.65;23.95605;935.7168;;;;
2022/04/11 12:33:36;;;;;;;0.7;0.7;;;;;;;23.18;22.86816;935.6294;;;;
2022/04/11 12:36:08;;;;;;;0.8;0.7;;;;;;;22.85;24.08398;935.5996;;;;
2022/04/11 12:38:39;;;;;;;2.1;0.7;;;;;;;22.21;24.66992;935.6269;;;;
2022/04/11 12:41:09;;;;;;;1;0.8;;;;;;;22.05;25.56445;935.5804;;;;
2022/04/11 12:43:41;;;;;;;2;1;;;;;;;22.73;23.83105;935.5447;;;;
2022/04/11 12:46:08;;;;;;;1;0.6;;;;;;;22.88;24.42578;935.4928;;;;
2022/04/11 12:48:36;;;;;;;1.6;0.7;;;;;;;22.72;23.57227;935.4728;;;;
2022/04/11 12:51:01;;;;;;;1.2;0.8;;;;;;;22.38;25.05566;935.4464;;;;
2022/04/11 12:53:32;;;;;;;1.3;0.7;;;;;;;22.64;24.78906;935.4714;;;;
2022/04/11 12:56:01;;;;;;;0.7;0.6;;;;;;;23.14;24.00586;935.4785;;;;
2022/04/11 12:58:26;;;;;;;1.2;0.7;;;;;;;23.05;24.24707;935.4216;;;;
2022/04/11 13:00:51;;;;;;;0.8;0.6;;;;;;;21.92;24.30273;935.4306;;;;
2022/04/11 13:03:18;;;;;;;0.8;0.6;;;;;;;22.1;24.0791;935.4138;;;;
2022/04/11 13:05:41;;;;;;;1.1;0.7;;;;;;;21.87;26.59668;935.3191;;;;
2022/04/11 13:08:11;;;;;;;1.2;0.6;;;;;;;21.47;27.0293;935.4018;;;;
2022/04/11 13:10:33;;;;;;;1;0.6;;;;;;;21.9;26.79785;935.3181;;;;
2022/04/11 13:13:03;;;;;;;2.5;0.8;;;;;;;22.3;25.79004;935.3484;;;;
2022/04/11 13:15:26;;;;;;;0.9;0.8;;;;;;;22.78;24.49121;935.2966;;;;
2022/04/11 13:20:23;;;;;;;1;0.9;;;;;;;21.33;26.06152;935.3024;;;;
2022/04/11 13:22:45;;;;;;;0.9;0.6;;;;;;;20.55;28.46875;935.2991;;;;
2022/04/11 13:25:15;;;;;;;1.3;0.8;;;;;;;20.54;26.37793;935.1838;;;;
2022/04/11 13:27:43;;;;;;;0.7;0.5;;;;;;;20.04;27.99316;935.2687;;;;
2022/04/11 13:30:08;;;;;;;0.8;0.6;;;;;;;19.66;26.65039;935.226;;;;
2022/04/11 13:32:38;;;;;;;0.9;0.7;;;;;;;19.51;28.32031;935.2241;;;;
2022/04/11 13:35:11;;;;;;;1.9;0.7;;;;;;;19.3;28.93555;935.2697;;;;
2022/04/11 13:37:39;;;;;;;0.9;0.7;;;;;;;19.22;27.56836;935.1613;;;;
2022/04/11 13:40:04;;;;;;;0.9;0.6;;;;;;;19.33;28.71582;935.1453;;;;
2022/04/11 13:42:39;;;;;;;0.9;0.5;;;;;;;18.98;29.96191;935.1207;;;;
2022/04/11 13:45:13;;;;;;;0.9;0.6;;;;;;;18.68;30.24512;935.0988;;;;
2022/04/11 13:47:44;;;;;;;10.5;1.2;;;;;;;18.37;30.33984;935.0262;;;;
2022/04/11 13:50:11;;;;;;;1.6;0.5;;;;;;;18.39;31.23633;935.0217;;;;
2022/04/11 13:52:40;;;;;;;1.3;0.7;;;;;;;18.51;29.91895;935.0705;;;;
2022/04/11 13:55:16;;;;;;;1.2;0.5;;;;;;;18.55;30.36426;935.0063;;;;
2022/04/11 13:57:42;;;;;;;1.5;0.5;;;;;;;18.38;31.51465;934.9339;;;;
2022/04/11 14:00:08;;;;;;;1.3;0.7;;;;;;;18.51;29.30273;934.9406;;;;
2022/04/11 14:02:37;;;;;;;4.5;1;;;;;;;18.63;30.06738;934.9041;;;;
2022/04/11 14:05:06;;;;;;;1.6;1;;;;;;;18.71;29.11816;934.9205;;;;
2022/04/11 14:07:31;;;;;;;0.6;0.5;;;;;;;18.53;29.01367;934.865;;;;
2022/04/11 14:09:59;;;;;;;0.8;0.7;;;;;;;18.3;29.32324;934.8369;;;;
2022/04/11 14:12:25;;;;;;;0.9;0.5;;;;;;;18.07;30.86523;934.8093;;;;
2022/04/11 14:14:50;;;;;;;1.4;0.6;;;;;;;18.23;29.92285;934.6696;;;;
2022/04/11 14:17:17;;;;;;;1.7;0.6;;;;;;;18.25;29.91309;934.7535;;;;
2022/04/11 14:19:42;;;;;;;0.8;0.6;;;;;;;18.47;29.93848;934.7338;;;;
2022/04/11 14:22:11;;;;;;;1.3;0.7;;;;;;;18.58;28.81836;934.658;;;;
2022/04/11 14:24:37;;;;;;;1.7;0.7;;;;;;;18.54;29.03711;934.6495;;;;
2022/04/11 14:27:03;;;;;;;0.8;0.6;;;;;;;18.45;29.13574;934.5994;;;;
2022/04/11 14:29:28;;;;;;;1.4;0.7;;;;;;;18.43;29.82031;934.4871;;;;
2022/04/11 14:31:55;;;;;;;2;0.8;;;;;;;18.27;30.04199;934.5402;;;;
2022/04/11 14:34:19;;;;;;;1.6;0.7;;;;;;;18.31;30.14941;934.4642;;;;
2022/04/11 14:36:47;;;;;;;1;0.6;;;;;;;17.82;30.66113;934.5478;;;;
2022/04/11 14:39:13;;;;;;;0.5;0.5;;;;;;;17.97;30.42871;934.5183;;;;
2022/04/11 14:41:37;;;;;;;1.1;0.5;;;;;;;17.92;30.91211;934.5398;;;;
2022/04/11 14:44:05;;;;;;;0.7;0.6;;;;;;;17.75;30.95801;934.505;;;;
2022/04/11 14:46:30;;;;;;;1;0.5;;;;;;;17.72;30.72461;934.4436;;;;
2022/04/11 14:48:59;;;;;;;3.2;0.7;;;;;;;17.76;30.14746;934.4869;;;;
2022/04/11 14:51:24;;;;;;;0.5;0.5;;;;;;;17.62;31.36621;934.4761;;;;
2022/04/11 14:53:52;;;;;;;0.9;0.7;;;;;;;17.52;31.75391;934.4664;;;;
2022/04/11 14:56:17;;;;;;;2;0.7;;;;;;;17.68;31.75488;934.418;;;;
2022/04/11 14:58:43;;;;;;;2.2;0.7;;;;;;;17.61;30.07813;934.3876;;;;
2022/04/11 15:01:09;;;;;;;0.5;0.5;;;;;;;17.61;31.14648;934.3256;;;;
2022/04/11 15:03:34;;;;;;;1;0.8;;;;;;;17.65;31.99609;934.3177;;;;
2022/04/11 15:05:59;;;;;;;2;0.9;;;;;;;17.66;31.24316;934.2975;;;;
2022/04/11 15:08:27;;;;;;;3;0.8;;;;;;;17.59;31.86426;934.2762;;;;
2022/04/11 15:10:52;;;;;;;1.6;0.8;;;;;;;17.6;31.78418;934.2969;;;;
2022/04/11 15:13:23;;;;;;;2.2;0.7;;;;;;;17.5;32.05469;934.3137;;;;
2022/04/11 15:15:50;;;;;;;1.2;0.6;;;;;;;17.52;31.5332;934.3272;;;;
2022/04/11 15:18:19;;;;;;;1.4;0.7;;;;;;;17.57;32.05957;934.2664;;;;
2022/04/11 15:20:48;;;;;;;1;0.8;;;;;;;17.56;32.16406;934.2311;;;;
2022/04/11 15:23:13;;;;;;;1;0.7;;;;;;;17.46;31.79688;934.2431;;;;
2022/04/11 15:25:40;;;;;;;0.6;0.6;;;;;;;17.47;32.5625;934.2518;;;;
2022/04/11 15:28:05;;;;;;;0.9;0.8;;;;;;;17.47;32.26074;934.1728;;;;
2022/04/11 15:30:33;;;;;;;1;0.8;;;;;;;17.39;32.75391;934.2606;;;;
2022/04/11 15:33:04;;;;;;;1.1;0.6;;;;;;;17.3;32.74707;934.2586;;;;